Time;durP1;ratioP1;P1;durP2;ratioP2;P2;SDS_P1;SDS_P2;PMS_P1;PMS_P2;Temp;Humidity;BMP_temperature;BMP_pressure;BME280_temperature;BME280_humidity;BME280_pressure;Samples;Min_cycle;Max_cycle;Signal;HPM_P1;HPM_P2
2023/10/29 00:00:33;;;;;;;1.95;0.77;;;;;;;9.44;100.00;91771.47;2098451;28;20029;-81
2023/10/29 00:01:34;;;;;;;1.10;0.90;;;;;;;9.53;100.00;91763.50;2105686;28;20527;-82
2023/10/29 00:02:35;;;;;;;3.67;0.85;;;;;;;9.53;100.00;91768.84;2114292;28;20030;-83
2023/10/29 00:03:36;;;;;;;2.42;0.70;;;;;;;9.58;100.00;91760.97;2106848;28;20107;-82
2023/10/29 00:04:49;;;;;;;2.13;1.02;;;;;;;9.55;100.00;91753.84;2106866;28;20024;-82
2023/10/29 00:05:50;;;;;;;2.00;0.80;;;;;;;9.53;100.00;91755.50;2105771;28;20138;-83
2023/10/29 00:06:51;;;;;;;1.67;0.80;;;;;;;9.52;100.00;91754.00;2097807;28;20107;-82
2023/10/29 00:07:52;;;;;;;4.40;0.90;;;;;;;9.61;100.00;91754.00;2094310;28;20438;-83
2023/10/29 00:08:53;;;;;;;1.73;0.80;;;;;;;9.58;100.00;91762.91;2105553;28;20032;-82
2023/10/29 00:09:54;;;;;;;2.78;0.80;;;;;;;9.53;100.00;91758.91;2097153;28;20024;-82
2023/10/29 00:10:55;;;;;;;2.13;0.80;;;;;;;9.49;100.00;91752.97;2098344;28;20020;-84
2023/10/29 00:11:57;;;;;;;5.88;1.27;;;;;;;9.43;100.00;91757.38;2098422;28;20025;-82
2023/10/29 00:12:58;;;;;;;3.40;1.00;;;;;;;9.45;100.00;91764.97;2115510;27;20022;-81
2023/10/29 00:13:59;;;;;;;2.22;1.10;;;;;;;9.49;100.00;91763.63;2104288;28;20024;-83
2023/10/29 00:15:00;;;;;;;1.73;1.00;;;;;;;9.52;100.00;91764.66;2101302;28;20027;-82
2023/10/29 00:16:01;;;;;;;3.30;1.52;;;;;;;9.45;100.00;91767.63;2113102;28;20460;-81
2023/10/29 00:17:03;;;;;;;1.45;0.93;;;;;;;9.43;100.00;91776.06;2113889;28;20019;-82
2023/10/29 00:18:13;;;;;;;1.83;1.00;;;;;;;9.41;100.00;91773.09;2106159;28;20040;-82
2023/10/29 00:19:14;;;;;;;1.98;0.90;;;;;;;9.40;100.00;91765.53;2105141;28;20028;-81
2023/10/29 00:20:15;;;;;;;1.92;1.00;;;;;;;9.40;100.00;91758.28;2096962;28;20032;-82
2023/10/29 00:21:16;;;;;;;2.03;0.77;;;;;;;9.39;100.00;91759.44;2096580;28;20024;-81
2023/10/29 00:22:17;;;;;;;1.45;0.80;;;;;;;9.49;100.00;91763.63;2108999;28;20031;-82
2023/10/29 00:23:18;;;;;;;3.30;1.73;;;;;;;9.45;100.00;91765.69;2106930;28;20028;-83
2023/10/29 00:24:19;;;;;;;4.45;1.20;;;;;;;9.50;100.00;91767.78;2101337;28;20083;-81
2023/10/29 00:25:26;;;;;;;5.43;1.40;;;;;;;9.41;100.00;91764.34;2109446;28;20047;-81
2023/10/29 00:26:27;;;;;;;2.42;1.10;;;;;;;9.53;100.00;91769.56;2104386;28;20097;-82
2023/10/29 00:27:30;;;;;;;1.83;0.90;;;;;;;9.56;100.00;91774.00;2095104;28;20020;-83
2023/10/29 00:28:31;;;;;;;2.38;0.88;;;;;;;9.51;100.00;91763.19;2098528;28;20048;-82
2023/10/29 00:29:32;;;;;;;1.05;0.80;;;;;;;9.52;100.00;91767.31;2096145;28;20028;-84
2023/10/29 00:30:33;;;;;;;1.83;0.90;;;;;;;9.51;100.00;91755.91;2085540;28;20032;-82
2023/10/29 00:31:34;;;;;;;2.47;1.25;;;;;;;9.50;100.00;91761.72;2094945;28;20028;-82
2023/10/29 00:32:35;;;;;;;4.00;1.17;;;;;;;9.65;100.00;91759.94;2097196;28;20028;-82
2023/10/29 00:33:36;;;;;;;1.58;0.90;;;;;;;9.72;100.00;91753.59;2096776;28;20099;-82
2023/10/29 00:34:37;;;;;;;3.90;0.95;;;;;;;9.71;100.00;91760.84;2111888;28;20501;-83
2023/10/29 00:35:38;;;;;;;1.52;0.90;;;;;;;9.54;100.00;91752.38;2112863;28;20484;-81
2023/10/29 00:36:39;;;;;;;2.95;1.00;;;;;;;9.66;100.00;91763.34;2096896;28;20373;-82
2023/10/29 00:37:40;;;;;;;1.73;0.80;;;;;;;9.68;100.00;91753.72;2098221;28;20039;-81
2023/10/29 00:38:41;;;;;;;4.57;1.05;;;;;;;9.67;100.00;91751.50;2095922;28;20025;-82
2023/10/29 00:39:42;;;;;;;4.63;1.10;;;;;;;9.59;100.00;91759.78;2098268;28;20020;-82
2023/10/29 00:40:43;;;;;;;2.45;0.80;;;;;;;9.62;100.00;91752.09;2104849;28;20058;-82
2023/10/29 00:41:45;;;;;;;1.98;0.80;;;;;;;9.57;100.00;91750.75;2088451;28;20017;-82
2023/10/29 00:42:46;;;;;;;3.20;1.10;;;;;;;9.50;100.00;91756.38;2096345;28;20050;-82
2023/10/29 00:43:47;;;;;;;1.45;0.70;;;;;;;9.44;100.00;91755.44;2104568;28;20489;-83
2023/10/29 00:44:48;;;;;;;3.33;0.90;;;;;;;9.35;100.00;91745.53;2106396;28;20020;-82
2023/10/29 00:45:53;;;;;;;2.92;0.90;;;;;;;9.11;100.00;91747.22;2106673;28;20027;-83
2023/10/29 00:46:54;;;;;;;2.50;1.10;;;;;;;9.31;100.00;91753.66;2095684;28;20017;-82
2023/10/29 00:47:56;;;;;;;1.70;0.88;;;;;;;9.25;100.00;91752.75;2096510;28;20108;-82
2023/10/29 00:48:58;;;;;;;2.60;1.05;;;;;;;9.23;100.00;91757.06;2105783;28;20024;-82
2023/10/29 00:50:05;;;;;;;4.50;1.00;;;;;;;9.25;100.00;91752.00;2089820;28;20026;-81
2023/10/29 00:51:07;;;;;;;3.90;0.60;;;;;;;9.11;100.00;91763.22;2090261;28;20179;-81
2023/10/29 00:52:08;;;;;;;1.23;1.00;;;;;;;9.10;100.00;91764.41;2088941;28;20473;-83
2023/10/29 00:53:10;;;;;;;1.55;0.90;;;;;;;9.12;100.00;91760.09;2088914;28;20025;-83
2023/10/29 00:54:10;;;;;;;1.60;1.10;;;;;;;9.04;100.00;91762.31;2088970;28;20029;-82
2023/10/29 00:55:12;;;;;;;2.22;1.00;;;;;;;9.00;100.00;91758.28;2098050;28;20047;-83
2023/10/29 00:56:15;;;;;;;3.25;1.15;;;;;;;8.93;100.00;91756.63;2106215;28;20020;-82
2023/10/29 00:57:16;;;;;;;1.88;1.05;;;;;;;8.85;100.00;91760.75;2098735;28;20021;-81
2023/10/29 00:58:19;;;;;;;1.98;1.02;;;;;;;8.68;100.00;91762.16;2089949;28;20016;-81
2023/10/29 00:59:21;;;;;;;2.47;0.88;;;;;;;8.64;100.00;91756.94;2102741;28;20032;-81
2023/10/29 01:00:23;;;;;;;2.15;1.27;;;;;;;8.54;100.00;91761.47;2105992;28;20146;-82
2023/10/29 01:01:25;;;;;;;1.92;1.00;;;;;;;8.69;100.00;91764.38;2096279;28;20074;-83
2023/10/29 01:02:26;;;;;;;2.15;1.10;;;;;;;8.68;100.00;91752.22;2098159;28;20020;-83
2023/10/29 01:03:27;;;;;;;5.32;1.30;;;;;;;8.71;100.00;91763.94;2088785;28;20064;-82
2023/10/29 01:04:28;;;;;;;1.42;1.33;;;;;;;8.55;100.00;91749.66;2091466;28;20884;-82
2023/10/29 01:05:29;;;;;;;3.97;1.40;;;;;;;8.49;100.00;91751.41;2093078;28;20612;-82
2023/10/29 01:06:31;;;;;;;1.15;0.98;;;;;;;8.44;100.00;91749.31;2014157;28;22242;-81
2023/10/29 01:07:33;;;;;;;5.28;1.10;;;;;;;8.47;100.00;91753.75;2014122;28;20163;-81
2023/10/29 01:08:34;;;;;;;3.53;1.25;;;;;;;8.22;100.00;91753.88;2025677;28;20028;-83
2023/10/29 01:09:35;;;;;;;3.72;1.50;;;;;;;8.32;100.00;91761.47;2032651;28;20031;-81
2023/10/29 01:10:38;;;;;;;2.35;1.10;;;;;;;8.29;100.00;91757.00;2037743;28;20539;-82
2023/10/29 01:11:39;;;;;;;2.70;0.90;;;;;;;8.28;100.00;91763.50;2053088;28;20027;-80
2023/10/29 01:12:40;;;;;;;2.83;1.20;;;;;;;8.34;100.00;91763.72;2053428;28;20028;-80
2023/10/29 01:13:41;;;;;;;1.50;0.98;;;;;;;8.23;100.00;91756.09;2066595;28;20028;-81
2023/10/29 01:14:42;;;;;;;2.00;1.20;;;;;;;8.23;100.00;91761.41;2064784;28;21822;-82
2023/10/29 01:15:43;;;;;;;2.53;1.10;;;;;;;8.15;100.00;91748.78;2092234;28;20749;-82
2023/10/29 01:16:44;;;;;;;2.97;1.10;;;;;;;8.02;100.00;91749.56;2096438;28;20063;-82
2023/10/29 01:17:45;;;;;;;1.20;0.90;;;;;;;8.27;100.00;91750.66;2087958;28;20044;-83
2023/10/29 01:18:47;;;;;;;1.40;1.00;;;;;;;8.21;100.00;91755.03;2095543;28;20021;-82
2023/10/29 01:19:48;;;;;;;2.35;1.20;;;;;;;8.24;100.00;91751.50;2097103;28;20016;-83
2023/10/29 01:20:49;;;;;;;4.03;1.30;;;;;;;8.26;100.00;91757.88;2015715;28;20126;-83
2023/10/29 01:21:50;;;;;;;4.20;1.30;;;;;;;8.12;100.00;91755.72;2017892;28;20024;-80
2023/10/29 01:22:52;;;;;;;3.97;1.55;;;;;;;8.11;100.00;91751.56;2023191;28;20029;-81
2023/10/29 01:23:53;;;;;;;2.65;1.10;;;;;;;8.08;100.00;91744.47;2029832;28;20916;-82
2023/10/29 01:24:54;;;;;;;2.42;1.65;;;;;;;8.23;100.00;91750.75;2049562;28;20045;-81
2023/10/29 01:25:59;;;;;;;3.28;1.27;;;;;;;8.12;100.00;91746.97;2051238;28;20024;-81
2023/10/29 01:27:00;;;;;;;4.60;1.23;;;;;;;8.00;100.00;91753.88;2072171;28;20020;-80
2023/10/29 01:28:01;;;;;;;2.13;1.15;;;;;;;7.95;100.00;91747.19;2068810;28;20110;-82
2023/10/29 01:29:03;;;;;;;2.50;1.25;;;;;;;8.04;100.00;91749.91;2077301;28;20032;-82
2023/10/29 01:30:05;;;;;;;3.35;1.40;;;;;;;8.03;100.00;91745.75;2090551;28;20026;-81
2023/10/29 01:31:29;;;;;;;3.97;1.30;;;;;;;8.00;100.00;91745.88;2097793;28;20016;-82
2023/10/29 01:32:30;;;;;;;4.15;1.67;;;;;;;7.91;100.00;91745.81;2105901;28;20067;-82
2023/10/29 01:33:31;;;;;;;2.33;1.05;;;;;;;7.97;100.00;91760.78;2095447;28;20019;-82
2023/10/29 01:34:32;;;;;;;2.05;1.30;;;;;;;7.96;100.00;91753.97;2091130;28;20017;-82
2023/10/29 01:35:33;;;;;;;2.83;1.30;;;;;;;8.05;100.00;91740.75;2110425;28;20023;-81
2023/10/29 01:36:34;;;;;;;3.30;1.33;;;;;;;7.89;100.00;91750.81;2122969;27;20029;-81
2023/10/29 01:37:35;;;;;;;1.38;0.90;;;;;;;7.81;100.00;91747.63;2111875;28;20475;-80
2023/10/29 01:38:36;;;;;;;2.60;1.17;;;;;;;7.96;100.00;91753.25;2104300;28;20401;-83
2023/10/29 01:39:37;;;;;;;3.50;1.20;;;;;;;7.88;100.00;91744.75;2106209;28;20028;-82
2023/10/29 01:40:38;;;;;;;2.33;1.00;;;;;;;7.98;100.00;91745.56;2119306;27;20016;-82
2023/10/29 01:41:39;;;;;;;3.47;1.10;;;;;;;8.02;100.00;91746.19;2119242;27;20023;-83
2023/10/29 01:42:40;;;;;;;2.13;0.90;;;;;;;7.99;100.00;91749.69;2111455;28;20062;-83
2023/10/29 01:43:41;;;;;;;1.63;1.27;;;;;;;7.98;100.00;91743.63;2110249;28;20031;-81
2023/10/29 01:44:42;;;;;;;1.88;1.40;;;;;;;7.95;100.00;91741.13;2104398;28;20488;-82
2023/10/29 01:45:43;;;;;;;2.33;0.90;;;;;;;7.97;100.00;91747.47;2097849;28;20081;-81
2023/10/29 01:46:44;;;;;;;2.30;1.33;;;;;;;7.96;100.00;91743.34;2100751;28;20193;-82
2023/10/29 01:47:45;;;;;;;1.55;0.90;;;;;;;7.98;100.00;91745.56;2111611;27;20031;-82
2023/10/29 01:48:46;;;;;;;3.13;1.10;;;;;;;8.08;100.00;91742.53;2112202;28;20479;-82
2023/10/29 01:49:47;;;;;;;2.65;1.48;;;;;;;8.11;100.00;91743.56;2105591;28;20027;-83
2023/10/29 01:50:50;;;;;;;2.47;1.30;;;;;;;8.07;100.00;91745.63;2093648;28;20028;-82
2023/10/29 01:51:51;;;;;;;3.70;1.20;;;;;;;7.97;100.00;91741.41;2098941;28;20030;-82
2023/10/29 01:52:53;;;;;;;6.35;1.33;;;;;;;7.96;100.00;91740.66;2094961;28;20024;-81
2023/10/29 01:53:54;;;;;;;1.90;1.10;;;;;;;7.90;100.00;91739.75;2103679;28;20050;-82
2023/10/29 01:54:57;;;;;;;2.25;1.45;;;;;;;7.99;100.00;91739.03;2097795;28;20027;-82
2023/10/29 01:56:08;;;;;;;3.25;1.15;;;;;;;7.83;100.00;91745.31;2097917;28;20920;-81
2023/10/29 01:57:08;;;;;;;2.53;1.15;;;;;;;7.81;100.00;91742.31;2107662;27;20042;-83
2023/10/29 01:58:09;;;;;;;1.73;1.05;;;;;;;7.91;100.00;91745.81;2111471;28;20101;-81
2023/10/29 01:59:14;;;;;;;2.42;1.10;;;;;;;7.93;100.00;91738.13;2105716;28;20031;-81
2023/10/29 02:00:15;;;;;;;1.83;1.00;;;;;;;7.83;100.00;91730.09;2102338;28;20024;-80
2023/10/29 02:01:16;;;;;;;1.77;1.02;;;;;;;7.90;100.00;91731.00;2094039;28;20070;-82
2023/10/29 02:02:17;;;;;;;3.47;1.00;;;;;;;7.91;100.00;91732.50;2102692;28;20439;-82
2023/10/29 02:03:18;;;;;;;1.05;0.95;;;;;;;7.77;100.00;91733.72;2083484;28;20123;-83
2023/10/29 02:04:26;;;;;;;1.90;1.13;;;;;;;7.86;100.00;91725.81;2029291;28;20397;-82
2023/10/29 02:05:27;;;;;;;3.63;1.10;;;;;;;7.78;100.00;91732.56;2025533;28;22102;-82
2023/10/29 02:06:29;;;;;;;1.88;1.05;;;;;;;7.73;100.00;91733.09;2024421;28;20049;-81
2023/10/29 02:07:30;;;;;;;2.22;0.93;;;;;;;7.70;100.00;91721.41;2039186;28;20055;-82
2023/10/29 02:08:32;;;;;;;4.57;1.17;;;;;;;7.81;100.00;91715.72;2034384;28;20025;-80
2023/10/29 02:09:33;;;;;;;1.70;0.95;;;;;;;7.85;100.00;91721.66;2050218;28;20057;-80
2023/10/29 02:10:33;;;;;;;2.45;1.10;;;;;;;7.79;100.00;91723.41;2059558;28;21411;-79
2023/10/29 02:11:36;;;;;;;2.05;1.17;;;;;;;7.85;100.00;91716.34;2074200;28;21654;-83
2023/10/29 02:12:37;;;;;;;4.82;0.98;;;;;;;7.97;100.00;91718.19;2081016;28;20034;-83
2023/10/29 02:13:38;;;;;;;2.20;1.08;;;;;;;7.78;100.00;91714.69;2090999;28;20019;-81
2023/10/29 02:14:40;;;;;;;1.35;0.90;;;;;;;7.78;100.00;91719.25;2095962;28;20016;-82
2023/10/29 02:15:40;;;;;;;1.27;1.15;;;;;;;7.71;100.00;91722.88;2110069;28;20027;-82
2023/10/29 02:16:42;;;;;;;1.75;1.02;;;;;;;7.79;100.00;91723.41;2119271;27;20023;-82
2023/10/29 02:17:43;;;;;;;3.33;1.45;;;;;;;7.75;100.00;91722.78;2119226;27;20038;-82
2023/10/29 02:18:43;;;;;;;1.80;0.85;;;;;;;7.82;100.00;91725.94;2116635;27;20036;-83
2023/10/29 02:19:44;;;;;;;4.00;1.00;;;;;;;7.80;100.00;91720.28;2099698;28;20055;-81
2023/10/29 02:20:47;;;;;;;2.58;1.05;;;;;;;7.81;100.00;91721.03;2109102;28;20110;-83
2023/10/29 02:23:52;;;;;;;;;;;;;;;7.04;100.00;91726.56;2142359;27;20118;-83
2023/10/29 02:24:54;;;;;;;3.75;1.30;;;;;;;7.05;100.00;91725.38;2113444;28;20449;-84
2023/10/29 02:25:54;;;;;;;2.45;1.00;;;;;;;7.20;100.00;91716.94;2093554;28;20021;-83
2023/10/29 02:26:57;;;;;;;3.83;1.30;;;;;;;7.22;100.00;91726.00;2105286;28;20451;-83
2023/10/29 02:27:58;;;;;;;1.45;1.17;;;;;;;7.15;100.00;91720.16;2109781;28;20028;-81
2023/10/29 02:28:59;;;;;;;3.05;1.15;;;;;;;7.19;100.00;91726.09;2099418;28;20521;-81
2023/10/29 02:30:00;;;;;;;1.63;1.00;;;;;;;7.22;100.00;91725.25;2104650;28;20050;-82
2023/10/29 02:31:01;;;;;;;3.97;1.30;;;;;;;7.19;100.00;91731.41;2109834;28;20020;-82
2023/10/29 02:32:02;;;;;;;2.60;1.30;;;;;;;7.16;100.00;91733.03;2115804;28;20026;-83
2023/10/29 02:33:03;;;;;;;2.72;1.58;;;;;;;7.12;100.00;91721.03;2106712;27;20021;-81
2023/10/29 02:34:04;;;;;;;2.78;1.30;;;;;;;7.15;100.00;91726.22;2111533;27;20023;-82
2023/10/29 02:35:06;;;;;;;2.70;1.00;;;;;;;7.15;100.00;91728.13;2107234;28;20025;-82
2023/10/29 02:36:07;;;;;;;2.50;1.10;;;;;;;7.18;100.00;91730.69;2104948;28;20020;-82
2023/10/29 02:37:14;;;;;;;3.53;1.10;;;;;;;7.22;100.00;91725.25;2096764;28;20107;-82
2023/10/29 02:38:16;;;;;;;2.17;1.17;;;;;;;7.27;100.00;91722.78;2109114;27;20032;-82
2023/10/29 02:39:17;;;;;;;3.92;1.10;;;;;;;7.34;100.00;91716.53;2125750;27;20394;-82
2023/10/29 02:40:19;;;;;;;12.93;1.63;;;;;;;7.18;100.00;91716.66;2115220;28;20496;-82
2023/10/29 02:41:20;;;;;;;3.67;1.67;;;;;;;7.10;100.00;91718.78;2105805;28;20052;-82
2023/10/29 02:42:21;;;;;;;3.13;1.48;;;;;;;7.22;100.00;91720.69;2100221;28;20029;-82
2023/10/29 02:43:22;;;;;;;1.92;1.38;;;;;;;7.28;100.00;91723.53;2106391;27;20504;-82
2023/10/29 02:44:23;;;;;;;1.77;1.10;;;;;;;7.34;100.00;91726.41;2118301;28;20076;-81
2023/10/29 02:45:24;;;;;;;2.42;1.30;;;;;;;7.24;100.00;91722.91;2114672;28;20114;-81
2023/10/29 02:46:25;;;;;;;2.33;1.10;;;;;;;7.16;100.00;91722.41;2100558;28;20461;-82
2023/10/29 02:47:26;;;;;;;3.17;0.93;;;;;;;7.23;100.00;91721.41;2100429;28;20028;-82
2023/10/29 02:48:27;;;;;;;1.98;1.00;;;;;;;7.31;100.00;91722.69;2102695;28;20048;-82
2023/10/29 02:49:28;;;;;;;1.83;1.10;;;;;;;7.21;100.00;91724.53;2094478;28;20080;-82
2023/10/29 02:50:29;;;;;;;1.52;1.20;;;;;;;7.14;100.00;91718.69;2093713;28;20462;-82
2023/10/29 02:51:30;;;;;;;2.65;1.30;;;;;;;7.07;100.00;91714.34;2115114;28;20039;-81
2023/10/29 02:52:31;;;;;;;1.25;0.90;;;;;;;6.98;100.00;91715.00;2122214;27;20054;-82
2023/10/29 02:53:32;;;;;;;2.92;1.10;;;;;;;7.02;100.00;91720.16;2109798;28;20071;-81
2023/10/29 02:54:33;;;;;;;1.58;1.15;;;;;;;7.00;100.00;91712.63;2115465;27;20024;-81
2023/10/29 02:55:34;;;;;;;1.65;1.10;;;;;;;7.10;100.00;91712.72;2119262;28;20027;-81
2023/10/29 02:56:37;;;;;;;2.33;0.90;;;;;;;7.06;100.00;91716.22;2111805;28;20027;-81
2023/10/29 02:57:40;;;;;;;1.33;0.93;;;;;;;6.98;100.00;91712.34;2104478;28;20821;-82
2023/10/29 02:58:41;;;;;;;3.65;1.00;;;;;;;7.05;100.00;91708.69;2105855;27;20032;-82
2023/10/29 02:59:42;;;;;;;1.90;1.33;;;;;;;7.01;100.00;91719.44;2106549;28;20027;-82
2023/10/29 03:00:43;;;;;;;2.20;1.15;;;;;;;7.07;100.00;91709.03;2095552;28;20017;-83
2023/10/29 03:01:44;;;;;;;2.78;1.00;;;;;;;7.06;100.00;91718.16;2110852;28;20023;-81
2023/10/29 03:02:45;;;;;;;2.38;0.98;;;;;;;7.04;100.00;91723.91;2112672;28;20073;-82
2023/10/29 03:03:46;;;;;;;2.58;0.93;;;;;;;6.97;100.00;91710.81;2095289;28;20024;-82
2023/10/29 03:04:47;;;;;;;2.95;1.33;;;;;;;6.96;100.00;91721.88;2102923;28;20138;-81
2023/10/29 03:05:47;;;;;;;3.95;1.30;;;;;;;6.90;100.00;91719.03;2107690;28;20024;-82
2023/10/29 03:06:48;;;;;;;1.27;1.00;;;;;;;6.85;100.00;91716.16;2109997;28;20031;-82
2023/10/29 03:07:49;;;;;;;1.45;1.00;;;;;;;6.93;100.00;91714.75;2103142;28;20020;-83
2023/10/29 03:08:51;;;;;;;2.88;1.10;;;;;;;6.82;100.00;91712.44;2102304;28;20016;-83
2023/10/29 03:09:52;;;;;;;2.70;0.95;;;;;;;6.88;100.00;91713.38;2091987;28;20017;-82
2023/10/29 03:10:53;;;;;;;2.10;0.90;;;;;;;6.78;100.00;91717.84;2092965;28;20031;-81
2023/10/29 03:11:56;;;;;;;2.80;1.15;;;;;;;6.73;100.00;91715.75;2107693;27;20857;-83
2023/10/29 03:12:57;;;;;;;1.98;1.10;;;;;;;6.62;100.00;91717.22;2114202;28;20115;-82
2023/10/29 03:13:59;;;;;;;1.27;1.10;;;;;;;6.70;100.00;91721.16;2108921;28;20496;-81
2023/10/29 03:15:00;;;;;;;2.10;0.90;;;;;;;6.66;100.00;91717.84;2102716;28;20027;-81
2023/10/29 03:16:02;;;;;;;1.60;1.00;;;;;;;6.65;100.00;91714.47;2095983;28;20075;-82
2023/10/29 03:17:03;;;;;;;0.95;0.90;;;;;;;6.61;100.00;91718.38;2099134;28;20109;-82
2023/10/29 03:18:04;;;;;;;2.95;1.20;;;;;;;6.92;100.00;91721.25;2100886;28;20473;-81
2023/10/29 03:19:05;;;;;;;1.15;1.00;;;;;;;6.86;100.00;91728.28;2101240;28;20105;-82
2023/10/29 03:20:07;;;;;;;1.92;1.02;;;;;;;6.87;100.00;91722.53;2121350;27;20024;-80
2023/10/29 03:21:08;;;;;;;3.38;1.10;;;;;;;6.90;100.00;91719.03;2120927;28;20415;-82
2023/10/29 03:22:09;;;;;;;2.33;1.08;;;;;;;6.91;100.00;91712.53;2112705;28;20054;-81
2023/10/29 03:23:10;;;;;;;1.55;0.90;;;;;;;6.91;100.00;91701.19;2112421;28;20039;-81
2023/10/29 03:24:10;;;;;;;2.50;0.90;;;;;;;6.80;100.00;91709.44;2123237;27;20020;-81
2023/10/29 03:25:12;;;;;;;3.35;1.10;;;;;;;6.67;100.00;91717.44;2108608;28;20021;-81
2023/10/29 03:26:13;;;;;;;1.60;1.02;;;;;;;6.65;100.00;91705.75;2102480;28;20456;-82
2023/10/29 03:27:14;;;;;;;4.95;1.33;;;;;;;6.64;100.00;91706.94;2104325;28;20084;-82
2023/10/29 03:28:14;;;;;;;3.05;1.40;;;;;;;6.49;100.00;91707.31;2102270;28;20028;-82
2023/10/29 03:29:15;;;;;;;2.05;1.20;;;;;;;6.52;100.00;91711.78;2102047;28;20496;-83
2023/10/29 03:30:16;;;;;;;1.92;0.93;;;;;;;6.59;100.00;91712.78;2105318;28;20020;-81
2023/10/29 03:31:19;;;;;;;2.25;1.30;;;;;;;6.60;100.00;91704.38;2112385;28;20024;-81
2023/10/29 03:32:20;;;;;;;3.22;0.93;;;;;;;6.53;100.00;91699.25;2104505;28;20028;-81
2023/10/29 03:33:21;;;;;;;2.03;1.35;;;;;;;6.51;100.00;91702.34;2107862;28;20461;-80
2023/10/29 03:34:30;;;;;;;1.45;0.90;;;;;;;6.53;100.00;91699.25;2093652;28;20020;-83
2023/10/29 03:35:31;;;;;;;2.25;1.30;;;;;;;6.54;100.00;91704.16;2088549;28;20052;-82
2023/10/29 03:36:34;;;;;;;1.85;1.10;;;;;;;6.41;100.00;91706.06;2102033;28;20020;-82
2023/10/29 03:37:35;;;;;;;1.67;1.20;;;;;;;6.50;100.00;91703.53;2096565;28;20837;-82
2023/10/29 03:38:36;;;;;;;3.95;1.10;;;;;;;6.50;100.00;91700.13;2099653;28;20028;-83
2023/10/29 03:39:37;;;;;;;1.50;0.77;;;;;;;6.53;100.00;91700.00;2098127;28;20040;-82
2023/10/29 03:40:39;;;;;;;3.35;1.00;;;;;;;6.51;100.00;91699.69;2099670;28;20035;-82
2023/10/29 03:41:40;;;;;;;1.35;0.95;;;;;;;6.55;100.00;91696.94;2109675;28;20088;-81
2023/10/29 03:42:41;;;;;;;3.08;1.10;;;;;;;6.32;100.00;91697.97;2102473;28;20485;-81
2023/10/29 03:43:42;;;;;;;3.47;1.00;;;;;;;6.35;100.00;91693.75;2098469;28;20016;-82
2023/10/29 03:44:43;;;;;;;2.08;1.20;;;;;;;6.34;100.00;91697.56;2097952;28;20489;-81
2023/10/29 03:45:43;;;;;;;1.40;0.90;;;;;;;6.35;100.00;91694.47;2102822;28;20028;-81
2023/10/29 03:46:50;;;;;;;2.35;1.08;;;;;;;6.47;100.00;91696.41;2111350;28;20015;-81
2023/10/29 03:47:50;;;;;;;1.42;1.10;;;;;;;6.56;100.00;91691.19;2107213;28;20069;-82
2023/10/29 03:48:52;;;;;;;1.92;1.25;;;;;;;6.48;100.00;91679.31;2098285;28;20023;-81
2023/10/29 03:49:55;;;;;;;3.78;1.13;;;;;;;6.41;100.00;91686.72;2098728;28;20112;-83
2023/10/29 03:50:56;;;;;;;1.27;0.95;;;;;;;6.48;100.00;91679.31;2089527;28;20025;-83
2023/10/29 03:51:57;;;;;;;1.65;1.08;;;;;;;6.58;100.00;91674.84;2085610;28;20032;-83
2023/10/29 03:52:58;;;;;;;1.65;1.08;;;;;;;6.41;100.00;91684.06;2098565;28;20032;-82
2023/10/29 03:53:59;;;;;;;2.08;1.20;;;;;;;6.53;100.00;91678.03;2106949;28;20024;-82
2023/10/29 03:55:00;;;;;;;1.10;0.90;;;;;;;6.63;100.00;91681.53;2106126;28;20027;-82
2023/10/29 03:56:01;;;;;;;1.02;0.90;;;;;;;6.63;100.00;91682.28;2096511;28;20021;-81
2023/10/29 03:57:03;;;;;;;2.83;1.02;;;;;;;6.72;100.00;91677.09;2104791;28;20095;-82
2023/10/29 03:58:04;;;;;;;5.03;1.17;;;;;;;6.65;100.00;91671.25;2104628;28;20032;-81
2023/10/29 03:59:06;;;;;;;1.70;1.02;;;;;;;6.49;100.00;91667.50;2107072;28;20443;-83
2023/10/29 04:00:07;;;;;;;1.88;1.00;;;;;;;6.57;100.00;91676.00;2098408;28;20039;-81
2023/10/29 04:01:12;;;;;;;1.55;1.08;;;;;;;6.69;100.00;91671.88;2086990;28;20032;-82
2023/10/29 04:02:13;;;;;;;2.40;1.02;;;;;;;6.70;100.00;91668.03;2097509;28;20020;-83
2023/10/29 04:03:14;;;;;;;5.68;1.25;;;;;;;6.57;100.00;91660.81;2087417;28;20032;-82
2023/10/29 04:04:15;;;;;;;0.95;0.90;;;;;;;6.62;100.00;91664.84;2090290;28;20017;-83
2023/10/29 04:05:16;;;;;;;4.85;0.90;;;;;;;6.52;100.00;91660.63;2096691;28;20031;-82
2023/10/29 04:06:19;;;;;;;3.88;1.10;;;;;;;6.51;100.00;91669.75;2089579;28;20386;-81
2023/10/29 04:07:20;;;;;;;1.17;0.95;;;;;;;6.54;100.00;91668.88;2098529;28;20157;-81
2023/10/29 04:08:22;;;;;;;1.15;0.80;;;;;;;6.52;100.00;91665.94;2090006;28;20070;-80
2023/10/29 04:09:23;;;;;;;1.20;1.10;;;;;;;6.51;100.00;91659.88;2092926;28;20025;-81
2023/10/29 04:10:24;;;;;;;1.85;0.98;;;;;;;6.54;100.00;91660.94;2098147;28;20024;-83
2023/10/29 04:11:25;;;;;;;1.10;1.00;;;;;;;6.56;100.00;91659.34;2112244;28;20110;-82
2023/10/29 04:12:27;;;;;;;1.35;1.10;;;;;;;6.60;100.00;91655.84;2097597;28;20104;-83
2023/10/29 04:13:28;;;;;;;2.47;1.38;;;;;;;6.62;100.00;91651.59;2098551;28;20025;-82
2023/10/29 04:14:29;;;;;;;2.13;0.93;;;;;;;6.45;100.00;91658.94;2103218;28;20504;-81
2023/10/29 04:15:30;;;;;;;1.00;0.82;;;;;;;6.56;100.00;91654.03;2114927;28;20015;-81
2023/10/29 04:16:32;;;;;;;1.55;1.17;;;;;;;6.56;100.00;91658.59;2109524;28;20123;-81
2023/10/29 04:17:34;;;;;;;2.70;1.27;;;;;;;6.54;100.00;91650.31;2106479;28;20052;-81
2023/10/29 04:18:35;;;;;;;1.45;0.90;;;;;;;6.52;100.00;91650.00;2089729;28;20044;-82
2023/10/29 04:19:36;;;;;;;1.80;1.10;;;;;;;6.46;100.00;91638.44;2091996;28;20077;-81
2023/10/29 04:20:37;;;;;;;2.95;1.00;;;;;;;6.41;100.00;91636.31;2102667;28;20467;-82
2023/10/29 04:21:38;;;;;;;1.30;1.10;;;;;;;6.47;100.00;91635.34;2098088;28;20499;-81
2023/10/29 04:22:41;;;;;;;1.02;1.00;;;;;;;6.38;100.00;91637.91;2106501;28;20071;-80
2023/10/29 04:23:42;;;;;;;1.98;1.20;;;;;;;6.31;100.00;91646.06;2106046;28;20040;-81
2023/10/29 04:24:43;;;;;;;3.72;1.20;;;;;;;6.43;100.00;91644.59;2089903;28;20025;-81
2023/10/29 04:25:44;;;;;;;1.95;1.00;;;;;;;6.44;100.00;91641.50;2093303;28;20096;-82
2023/10/29 04:26:45;;;;;;;1.10;0.98;;;;;;;6.44;100.00;91646.81;2105468;28;20020;-82
2023/10/29 04:27:46;;;;;;;1.92;0.90;;;;;;;6.39;100.00;91657.22;2103890;28;20020;-81
2023/10/29 04:28:47;;;;;;;1.33;0.93;;;;;;;6.39;100.00;91657.97;2095556;28;20059;-83
2023/10/29 04:29:48;;;;;;;1.55;1.15;;;;;;;6.43;100.00;91647.25;2098153;28;20020;-82
2023/10/29 04:30:49;;;;;;;1.58;1.08;;;;;;;6.40;100.00;91651.47;2101497;28;20110;-83
2023/10/29 04:31:50;;;;;;;1.88;1.10;;;;;;;6.47;100.00;91643.31;2099301;28;20400;-81
2023/10/29 04:32:51;;;;;;;2.53;1.23;;;;;;;6.52;100.00;91640.13;2111456;27;20507;-82
2023/10/29 04:33:52;;;;;;;1.42;1.13;;;;;;;6.57;100.00;91631.63;2111213;28;20043;-82
2023/10/29 04:34:53;;;;;;;2.97;1.08;;;;;;;6.57;100.00;91639.59;2093997;28;20025;-82
2023/10/29 04:35:54;;;;;;;1.30;1.05;;;;;;;6.59;100.00;91643.75;2094469;28;20397;-82
2023/10/29 04:36:55;;;;;;;1.80;1.08;;;;;;;6.55;100.00;91641.19;2095803;28;20035;-82
2023/10/29 04:37:56;;;;;;;3.60;0.90;;;;;;;6.76;100.00;91637.88;2094401;28;20020;-81
2023/10/29 04:38:57;;;;;;;2.20;1.13;;;;;;;6.80;100.00;91635.09;2089980;28;20048;-80
2023/10/29 04:39:58;;;;;;;5.13;1.30;;;;;;;6.75;100.00;91638.28;2088370;28;20024;-80
2023/10/29 04:40:59;;;;;;;1.90;0.88;;;;;;;6.66;100.00;91638.94;2086616;28;20045;-81
2023/10/29 04:42:01;;;;;;;3.45;1.50;;;;;;;6.65;100.00;91637.47;2097016;28;20117;-82
2023/10/29 04:43:02;;;;;;;3.88;1.10;;;;;;;6.72;100.00;91637.25;2097512;28;20052;-81
2023/10/29 04:44:14;;;;;;;3.83;1.00;;;;;;;6.69;100.00;91637.38;2095140;28;20055;-83
2023/10/29 04:45:15;;;;;;;1.73;1.20;;;;;;;6.54;100.00;91632.50;2091071;28;20025;-84
2023/10/29 04:46:16;;;;;;;1.27;0.90;;;;;;;6.66;100.00;91630.97;2084460;28;20438;-84
2023/10/29 04:47:17;;;;;;;2.20;1.00;;;;;;;6.67;100.00;91629.06;2090290;28;20033;-83
2023/10/29 04:48:18;;;;;;;1.10;0.98;;;;;;;6.64;100.00;91629.94;2101013;28;20103;-82
2023/10/29 04:49:19;;;;;;;2.67;1.00;;;;;;;6.64;100.00;91624.63;2098711;28;20047;-84
2023/10/29 04:50:20;;;;;;;2.38;1.10;;;;;;;6.70;100.00;91621.00;2089510;28;20391;-83
2023/10/29 04:51:21;;;;;;;1.85;1.13;;;;;;;6.72;100.00;91621.31;2087511;28;20025;-85
2023/10/29 04:52:22;;;;;;;0.88;0.85;;;;;;;6.59;100.00;91625.91;2085735;28;20025;-81